Time;durP1;ratioP1;P1;durP2;ratioP2;P2;SDS_P1;SDS_P2;PMS_P1;PMS_P2;Temp;Humidity;BMP_temperature;BMP_pressure;BME280_temperature;BME280_humidity;BME280_pressure;Samples;Min_cycle;Max_cycle;Signal;HPM_P1;HPM_P2
2021/09/04 00:02:11;;;;;;;21.77;14.50;;;20.00;99.90;;;;;;5055025;28;20025;-79
2021/09/04 00:04:38;;;;;;;19.77;14.20;;;20.10;99.90;;;;;;5054775;28;20048;-78
2021/09/04 00:07:05;;;;;;;21.95;15.02;;;20.10;99.90;;;;;;5053373;28;20414;-79
2021/09/04 00:09:31;;;;;;;20.35;15.07;;;20.00;99.90;;;;;;5054717;28;20017;-80
2021/09/04 00:11:57;;;;;;;19.33;14.10;;;19.80;99.90;;;;;;5054894;28;20037;-80
2021/09/04 00:14:23;;;;;;;19.30;14.30;;;19.70;99.90;;;;;;5053296;28;20508;-80
2021/09/04 00:16:48;;;;;;;22.00;15.07;;;19.80;99.90;;;;;;5054738;28;20032;-80
2021/09/04 00:19:14;;;;;;;20.33;15.82;;;19.80;99.90;;;;;;5054459;28;20028;-80
2021/09/04 00:21:40;;;;;;;23.50;16.63;;;19.70;99.90;;;;;;5054538;28;20025;-80
2021/09/04 00:24:05;;;;;;;21.63;15.13;;;19.50;99.90;;;;;;5054291;28;20021;-79
2021/09/04 00:26:31;;;;;;;21.05;16.63;;;19.60;99.90;;;;;;5054718;28;20025;-79
2021/09/04 00:28:57;;;;;;;20.73;15.15;;;19.50;99.90;;;;;;5054274;28;20025;-79
2021/09/04 00:31:23;;;;;;;20.15;14.93;;;19.50;99.90;;;;;;5052593;28;20041;-80
2021/09/04 00:33:48;;;;;;;21.25;14.13;;;19.90;99.90;;;;;;5054192;28;20393;-80
2021/09/04 00:36:14;;;;;;;17.88;12.70;;;20.10;99.90;;;;;;5054194;28;20036;-79
2021/09/04 00:38:40;;;;;;;17.52;11.98;;;20.10;99.90;;;;;;5054121;28;20036;-80
2021/09/04 00:41:05;;;;;;;16.85;12.70;;;20.10;99.90;;;;;;5054137;28;20021;-80
2021/09/04 00:43:31;;;;;;;;;;;19.80;99.90;;;;;;5053113;28;20033;-79
2021/09/04 00:46:10;;;;;;;21.13;13.93;;;19.40;99.90;;;;;;5054435;28;19905;-80
2021/09/04 00:48:37;;;;;;;19.98;14.27;;;19.50;99.90;;;;;;5054192;28;20070;-80
2021/09/04 00:51:03;;;;;;;21.83;16.10;;;19.70;99.90;;;;;;5053934;28;20102;-79
2021/09/04 00:53:29;;;;;;;20.15;14.35;;;19.60;99.90;;;;;;5053837;28;20513;-79
2021/09/04 00:55:55;;;;;;;19.80;13.50;;;19.80;99.90;;;;;;5054006;28;20021;-80
2021/09/04 00:58:21;;;;;;;17.02;12.93;;;19.80;99.90;;;;;;5052497;28;20025;-81
2021/09/04 01:00:51;;;;;;;19.92;14.15;;;19.60;99.90;;;;;;5053778;28;20032;-79
2021/09/04 01:03:18;;;;;;;20.05;14.85;;;19.10;99.90;;;;;;5052194;28;20449;-79
2021/09/04 01:05:46;;;;;;;20.45;14.38;;;18.80;99.90;;;;;;5053723;28;20116;-79
2021/09/04 01:08:12;;;;;;;20.55;14.77;;;18.60;99.90;;;;;;5053524;28;20389;-80
2021/09/04 01:10:38;;;;;;;20.25;14.60;;;18.60;99.90;;;;;;5052341;28;20021;-79
2021/09/04 01:13:05;;;;;;;20.67;13.77;;;18.90;99.90;;;;;;5053408;28;20051;-79
2021/09/04 01:15:32;;;;;;;21.05;11.88;;;19.40;99.90;;;;;;5053917;28;20088;-79
2021/09/04 01:18:03;;;;;;;16.08;11.15;;;19.40;99.90;;;;;;5053445;28;20029;-79
2021/09/04 01:20:29;;;;;;;16.92;11.20;;;19.30;99.90;;;;;;5053448;28;20143;-80
2021/09/04 01:22:55;;;;;;;16.58;12.73;;;19.30;99.90;;;;;;5053331;28;20505;-80
2021/09/04 01:25:26;;;;;;;14.98;11.30;;;19.10;99.90;;;;;;5053473;28;20078;-78
2021/09/04 01:27:52;;;;;;;18.50;12.77;;;18.80;99.90;;;;;;5051948;28;20401;-79
2021/09/04 01:30:18;;;;;;;17.67;13.18;;;18.90;99.90;;;;;;5053263;28;20017;-79
2021/09/04 01:32:44;;;;;;;18.83;13.65;;;19.00;99.90;;;;;;5052008;28;20036;-80
2021/09/04 01:35:10;;;;;;;;;;;19.20;99.90;;;;;;5053670;28;20066;-80
2021/09/04 01:37:37;;;;;;;18.83;13.48;;;19.10;99.90;;;;;;5053270;28;19904;-80
2021/09/04 01:40:08;;;;;;;19.27;14.02;;;19.10;99.90;;;;;;5053267;28;20096;-79
2021/09/04 01:42:34;;;;;;;19.58;14.07;;;18.80;99.90;;;;;;5052379;28;20033;-78
2021/09/04 01:45:00;;;;;;;19.30;13.85;;;18.80;99.90;;;;;;5053313;28;20079;-79
2021/09/04 01:47:26;;;;;;;;;;;18.90;99.90;;;;;;5053453;28;20028;-79
2021/09/04 01:49:53;;;;;;;18.38;13.13;;;18.90;99.90;;;;;;5053167;28;20003;-79
2021/09/04 01:52:19;;;;;;;18.20;12.40;;;18.90;99.90;;;;;;5053122;28;20021;-79
2021/09/04 01:54:45;;;;;;;15.85;11.25;;;18.70;99.90;;;;;;5053006;28;20025;-79
2021/09/04 01:57:11;;;;;;;18.83;11.80;;;18.70;99.90;;;;;;5053220;28;20033;-79
2021/09/04 01:59:38;;;;;;;;;;;18.40;99.90;;;;;;5053485;28;20500;-79
2021/09/04 02:02:05;;;;;;;16.08;11.77;;;18.10;99.90;;;;;;5051677;28;19905;-79
2021/09/04 02:04:31;;;;;;;16.55;11.20;;;17.80;99.90;;;;;;5051499;28;20511;-79
2021/09/04 02:06:56;;;;;;;19.73;12.43;;;18.00;99.90;;;;;;5052820;28;20112;-79
2021/09/04 02:09:22;;;;;;;;;;;18.20;99.90;;;;;;5052089;28;20021;-80
2021/09/04 02:11:48;;;;;;;21.60;15.10;;;18.40;99.90;;;;;;5053039;28;19913;-79
2021/09/04 02:14:13;;;;;;;;;;;18.30;99.90;;;;;;5053349;28;20375;-79
2021/09/04 02:16:41;;;;;;;22.67;15.43;;;18.00;99.90;;;;;;5052889;28;19905;-79
2021/09/04 02:19:07;;;;;;;19.23;14.30;;;18.00;99.90;;;;;;5052989;28;20115;-82
2021/09/04 02:21:32;;;;;;;;;;;17.90;99.90;;;;;;5053239;28;20021;-82
2021/09/04 02:23:58;;;;;;;15.25;11.05;;;18.00;99.90;;;;;;5052822;28;19905;-81
2021/09/04 02:26:24;;;;;;;;;;;18.40;99.90;;;;;;5051786;28;20052;-82
2021/09/04 02:28:50;;;;;;;22.30;16.48;;;18.30;99.90;;;;;;5051678;28;19908;-82
2021/09/04 02:31:17;;;;;;;;;;;17.80;99.90;;;;;;5053149;28;20028;-82
2021/09/04 02:33:42;;;;;;;18.60;14.35;;;17.60;99.90;;;;;;5051455;28;19911;-82
2021/09/04 02:36:08;;;;;;;;;;;17.70;99.90;;;;;;5051773;28;20017;-82
2021/09/04 02:38:34;;;;;;;21.77;14.20;;;17.80;99.90;;;;;;5052700;28;19916;-82
2021/09/04 02:40:59;;;;;;;;;;;18.10;99.90;;;;;;5053014;28;20444;-81
2021/09/04 02:43:25;;;;;;;23.70;14.15;;;18.30;99.90;;;;;;5052703;28;19905;-83
2021/09/04 02:45:50;;;;;;;;;;;18.10;99.90;;;;;;5053012;28;20504;-82
2021/09/04 02:48:16;;;;;;;19.83;13.63;;;18.20;99.90;;;;;;5051202;28;20395;-82
2021/09/04 02:50:42;;;;;;;;;;;18.10;99.90;;;;;;5053090;28;20488;-82
2021/09/04 02:53:08;;;;;;;24.25;12.95;;;18.10;99.90;;;;;;5051563;28;19905;-82
2021/09/04 02:55:34;;;;;;;;;;;18.10;99.90;;;;;;5056595;28;20021;-81
2021/09/04 02:58:00;;;;;;;18.20;13.02;;;18.20;99.90;;;;;;5056095;28;19905;-81
2021/09/04 03:00:25;;;;;;;20.42;14.52;;;18.30;99.90;;;;;;5056066;28;20029;-82
2021/09/04 03:02:51;;;;;;;;;;;18.30;99.90;;;;;;5056428;28;20025;-82
2021/09/04 03:05:18;;;;;;;22.15;14.25;;;17.90;99.90;;;;;;5055479;28;19916;-82
2021/09/04 03:07:44;;;;;;;19.02;13.27;;;17.60;99.90;;;;;;5055819;28;20036;-82
2021/09/04 03:10:09;;;;;;;;;;;17.80;99.90;;;;;;5056284;28;20021;-82
2021/09/04 03:12:35;;;;;;;21.38;12.48;;;18.10;99.90;;;;;;5054494;28;19955;-81
2021/09/04 03:15:01;;;;;;;;;;;18.10;99.90;;;;;;5056126;28;20025;-81
2021/09/04 03:17:27;;;;;;;16.83;12.10;;;18.20;99.90;;;;;;5055857;28;19911;-82
2021/09/04 03:19:52;;;;;;;;;;;18.20;99.90;;;;;;5054746;28;20485;-82
2021/09/04 03:22:18;;;;;;;16.58;12.32;;;18.10;99.90;;;;;;5054304;28;20043;-81
2021/09/04 03:24:43;;;;;;;;;;;18.10;99.90;;;;;;5056111;28;20091;-82
2021/09/04 03:27:09;;;;;;;20.60;12.45;;;18.10;99.90;;;;;;5055557;28;19913;-82
2021/09/04 03:29:35;;;;;;;;;;;17.90;99.90;;;;;;5055915;28;20079;-81
2021/09/04 03:32:01;;;;;;;19.80;13.70;;;17.90;99.90;;;;;;5054115;28;20333;-82
2021/09/04 03:34:27;;;;;;;27.30;15.63;;;17.50;99.90;;;;;;5055347;28;20473;-81
2021/09/04 03:36:53;;;;;;;;;;;17.00;99.90;;;;;;5055771;28;20071;-81
2021/09/04 03:39:18;;;;;;;18.45;13.68;;;16.90;99.90;;;;;;5055319;28;19904;-82
2021/09/04 03:41:44;;;;;;;;;;;17.10;99.90;;;;;;5055625;28;20032;-82
2021/09/04 03:44:10;;;;;;;19.30;13.48;;;17.40;99.90;;;;;;5055768;28;19974;-82
2021/09/04 03:46:35;;;;;;;;;;;17.70;99.90;;;;;;5055564;28;20060;-82
2021/09/04 03:49:02;;;;;;;16.00;11.13;;;17.60;99.90;;;;;;5054413;28;19955;-82
2021/09/04 03:51:28;;;;;;;22.33;14.85;;;17.30;99.90;;;;;;5055156;28;20017;-82
2021/09/04 03:53:54;;;;;;;;;;;16.90;99.90;;;;;;5055416;28;20474;-82
2021/09/04 03:56:19;;;;;;;19.15;14.40;;;16.70;99.90;;;;;;5055432;28;19911;-81
2021/09/04 03:58:45;;;;;;;;;;;16.60;99.90;;;;;;5055410;28;20029;-82
2021/09/04 04:01:11;;;;;;;20.98;14.93;;;16.90;99.90;;;;;;5054902;28;20409;-82
2021/09/04 04:03:36;;;;;;;;;;;17.20;99.90;;;;;;5055067;28;20049;-82
2021/09/04 04:06:02;;;;;;;21.42;14.90;;;17.50;99.90;;;;;;5054075;28;19905;-82
2021/09/04 04:08:28;;;;;;;;;;;17.50;99.90;;;;;;5055395;28;20154;-82
2021/09/04 04:11:03;;;;;;;23.40;16.15;;;17.60;99.90;;;;;;5054645;28;19905;-82
2021/09/04 04:13:28;;;;;;;26.20;17.63;;;17.20;99.90;;;;;;5054817;28;20013;-82
2021/09/04 04:15:54;;;;;;;;;;;17.00;99.90;;;;;;5055150;28;20035;-82
2021/09/04 04:18:19;;;;;;;22.23;15.52;;;17.00;99.90;;;;;;5054576;28;20254;-82
2021/09/04 04:20:45;;;;;;;;;;;17.50;99.90;;;;;;5054950;28;20021;-81
2021/09/04 04:23:11;;;;;;;16.65;11.88;;;17.60;99.90;;;;;;5054840;28;19963;-82
2021/09/04 04:25:36;;;;;;;;;;;17.50;99.90;;;;;;5054727;28;20108;-81
2021/09/04 04:28:02;;;;;;;20.83;14.60;;;17.20;99.90;;;;;;5054379;28;19954;-81
2021/09/04 04:30:28;;;;;;;;;;;17.20;99.90;;;;;;5054768;28;20021;-82
2021/09/04 04:32:53;;;;;;;19.38;13.38;;;17.10;99.90;;;;;;5054302;28;19905;-81
2021/09/04 04:35:19;;;;;;;;;;;17.00;99.90;;;;;;5054776;28;20393;-82
2021/09/04 04:37:45;;;;;;;18.77;12.07;;;17.10;99.90;;;;;;5052985;28;19952;-81
2021/09/04 04:40:10;;;;;;;;;;;17.30;99.90;;;;;;5054607;28;20017;-81
2021/09/04 04:42:36;;;;;;;17.40;10.85;;;17.50;99.90;;;;;;5054028;28;19904;-82
2021/09/04 04:45:02;;;;;;;;;;;17.60;99.90;;;;;;5054489;28;20029;-82
2021/09/04 04:47:28;;;;;;;15.43;10.02;;;17.50;99.90;;;;;;5053910;28;19955;-82
2021/09/04 04:49:53;;;;;;;;;;;17.50;99.90;;;;;;5054347;28;20036;-82
2021/09/04 04:52:19;;;;;;;15.27;9.32;;;17.30;99.90;;;;;;5052609;28;19905;-82
2021/09/04 04:54:44;;;;;;;;;;;17.10;99.90;;;;;;5054305;28;20079;-81
2021/09/04 04:57:10;;;;;;;14.25;9.40;;;16.60;99.90;;;;;;5053830;28;19959;-81
2021/09/04 04:59:36;;;;;;;;;;;16.40;99.90;;;;;;5052918;28;20025;-82
2021/09/04 05:02:01;;;;;;;22.52;12.02;;;16.20;99.90;;;;;;5052435;28;19912;-81
2021/09/04 05:04:27;;;;;;;19.35;11.85;;;16.00;99.90;;;;;;5052197;28;20067;-81
2021/09/04 05:06:53;;;;;;;;;;;15.80;99.90;;;;;;5053975;28;20029;-82
2021/09/04 05:09:18;;;;;;;19.20;12.27;;;15.80;99.90;;;;;;5053613;28;20425;-81
2021/09/04 05:11:45;;;;;;;;;;;15.80;99.90;;;;;;5054081;28;20029;-81
2021/09/04 05:14:10;;;;;;;15.90;10.70;;;16.20;99.90;;;;;;5053525;28;19946;-82
2021/09/04 05:16:36;;;;;;;;;;;16.60;99.90;;;;;;5052630;28;20067;-82
2021/09/04 05:19:02;;;;;;;13.85;10.23;;;16.80;99.90;;;;;;5053465;28;20432;-82
2021/09/04 05:21:27;;;;;;;;;;;17.00;99.90;;;;;;5054127;28;20017;-82
2021/09/04 05:23:53;;;;;;;21.63;12.52;;;16.80;99.90;;;;;;5053515;28;19905;-81
2021/09/04 05:26:19;;;;;;;23.50;13.88;;;16.30;99.90;;;;;;5053258;28;20150;-81
2021/09/04 05:28:44;;;;;;;16.67;11.63;;;15.90;99.90;;;;;;5053429;28;20094;-82
2021/09/04 05:31:10;;;;;;;18.85;13.55;;;15.80;99.90;;;;;;5052051;28;20025;-82
2021/09/04 05:33:36;;;;;;;;;;;16.10;99.90;;;;;;5053792;28;20112;-82
2021/09/04 05:36:01;;;;;;;21.15;13.57;;;16.20;99.90;;;;;;5051945;28;19944;-82
2021/09/04 05:38:27;;;;;;;;;;;16.40;99.90;;;;;;5053613;28;20031;-81
2021/09/04 05:40:53;;;;;;;21.52;15.05;;;16.30;99.90;;;;;;5053180;28;19913;-82
2021/09/04 05:43:20;;;;;;;;;;;16.50;99.90;;;;;;5052287;28;20569;-82
2021/09/04 05:45:47;;;;;;;19.20;13.60;;;16.70;99.90;;;;;;5053150;28;19912;-81
2021/09/04 05:48:13;;;;;;;20.77;13.73;;;17.20;99.90;;;;;;5053006;28;20052;-82
2021/09/04 05:50:38;;;;;;;;;;;17.40;99.90;;;;;;5052195;28;20497;-81
2021/09/04 05:53:04;;;;;;;20.02;12.40;;;17.50;99.90;;;;;;5053043;28;19909;-81
2021/09/04 05:55:29;;;;;;;;;;;17.50;99.90;;;;;;5053433;28;20052;-82
2021/09/04 05:57:55;;;;;;;27.08;17.00;;;17.30;99.90;;;;;;5052994;28;20074;-82
2021/09/04 06:00:21;;;;;;;;;;;17.20;99.90;;;;;;5052107;28;20037;-81
2021/09/04 06:02:47;;;;;;;31.27;16.17;;;17.30;99.90;;;;;;5053228;28;19938;-82
2021/09/04 06:05:12;;;;;;;;;;;17.50;99.90;;;;;;5052967;28;20048;-82
2021/09/04 06:07:38;;;;;;;31.17;16.58;;;17.70;99.90;;;;;;5052884;28;19912;-81
2021/09/04 06:10:04;;;;;;;;;;;17.70;99.90;;;;;;5053341;28;20029;-83
2021/09/04 06:12:30;;;;;;;31.42;16.95;;;17.70;99.90;;;;;;5052800;28;19905;-81
2021/09/04 06:14:55;;;;;;;;;;;17.90;99.90;;;;;;5053308;28;20048;-82
2021/09/04 06:17:21;;;;;;;31.63;20.05;;;17.90;99.90;;;;;;5052824;28;19932;-81
2021/09/04 06:19:46;;;;;;;;;;;17.90;99.90;;;;;;5053285;28;20032;-82
2021/09/04 06:22:12;;;;;;;26.08;17.35;;;17.90;99.90;;;;;;5052810;28;19904;-82
2021/09/04 06:24:38;;;;;;;;;;;18.00;99.90;;;;;;5053104;28;20394;-82
2021/09/04 06:27:03;;;;;;;29.45;16.05;;;18.20;99.90;;;;;;5053105;28;19974;-82
2021/09/04 06:29:29;;;;;;;;;;;18.50;99.90;;;;;;5055869;28;20025;-82
2021/09/04 06:31:55;;;;;;;42.40;19.73;;;18.70;99.90;;;;;;5056560;28;19916;-82
2021/09/04 06:34:20;;;;;;;;;;;18.60;99.90;;;;;;5055655;28;20086;-83
2021/09/04 06:36:46;;;;;;;24.65;15.48;;;17.60;99.90;;;;;;5056529;28;20403;-82
2021/09/04 06:39:12;;;;;;;;;;;17.30;99.90;;;;;;5056875;28;20074;-83
2021/09/04 06:41:37;;;;;;;34.25;19.48;;;17.50;99.90;;;;;;5056806;28;19912;-82
2021/09/04 06:44:03;;;;;;;;;;;17.80;99.90;;;;;;5056732;28;20068;-82
2021/09/04 06:46:32;;;;;;;47.55;23.23;;;17.80;99.90;;;;;;5055026;28;20385;-82
2021/09/04 06:48:59;;;;;;;32.95;19.10;;;17.70;99.90;;;;;;5054829;28;20163;-82
2021/09/04 06:51:25;;;;;;;37.55;22.25;;;18.00;99.90;;;;;;5056124;28;20448;-82
2021/09/04 06:53:52;;;;;;;40.03;21.85;;;18.40;99.90;;;;;;5056150;28;20017;-81
2021/09/04 06:56:18;;;;;;;39.67;21.10;;;18.30;99.90;;;;;;5056431;28;20362;-81
2021/09/04 06:58:44;;;;;;;31.90;21.67;;;18.70;99.90;;;;;;5056060;28;20082;-82
2021/09/04 07:01:09;;;;;;;32.65;22.75;;;18.80;99.90;;;;;;5054804;28;20025;-82
2021/09/04 07:03:36;;;;;;;39.15;22.25;;;18.10;99.90;;;;;;5054490;28;20076;-82
2021/09/04 07:06:03;;;;;;;33.45;22.13;;;18.50;99.90;;;;;;5055879;28;20032;-81
2021/09/04 07:08:29;;;;;;;31.38;22.73;;;18.80;99.90;;;;;;5056165;28;20388;-82
2021/09/04 07:10:54;;;;;;;35.05;23.10;;;18.80;99.90;;;;;;5054517;28;20119;-82
2021/09/04 07:13:20;;;;;;;33.20;22.85;;;18.90;99.90;;;;;;5055827;28;20096;-82
2021/09/04 07:15:46;;;;;;;;;;;19.00;99.90;;;;;;5056128;28;20432;-82
2021/09/04 07:18:11;;;;;;;87.28;26.17;;;19.00;99.90;;;;;;5056104;28;19912;-81
2021/09/04 07:20:37;;;;;;;53.40;24.35;;;18.90;99.90;;;;;;5055998;28;20096;-82
2021/09/04 07:23:03;;;;;;;33.30;22.83;;;18.80;99.90;;;;;;5055624;28;20461;-81
2021/09/04 07:25:29;;;;;;;29.48;20.90;;;19.00;99.90;;;;;;5055470;28;20016;-82
2021/09/04 07:27:55;;;;;;;69.35;27.75;;;19.40;99.90;;;;;;5054096;28;20128;-82
2021/09/04 07:30:20;;;;;;;24.58;20.25;;;19.30;99.90;;;;;;5055481;28;20135;-82
2021/09/04 07:32:46;;;;;;;;;;;19.60;99.90;;;;;;5055910;28;20017;-83
2021/09/04 07:35:12;;;;;;;27.58;20.83;;;19.40;99.90;;;;;;5055481;28;19905;-82
2021/09/04 07:37:38;;;;;;;26.55;20.30;;;19.50;99.90;;;;;;5053884;28;20509;-82
2021/09/04 07:40:04;;;;;;;26.48;20.58;;;19.60;99.90;;;;;;5054134;28;20033;-82
2021/09/04 07:42:31;;;;;;;25.20;19.92;;;19.80;99.90;;;;;;5055362;28;20017;-82
2021/09/04 07:44:57;;;;;;;27.98;21.52;;;20.10;99.90;;;;;;5053785;28;20087;-83
2021/09/04 07:47:23;;;;;;;26.38;20.27;;;20.00;99.90;;;;;;5055623;28;20021;-83
2021/09/04 07:49:49;;;;;;;29.92;21.25;;;20.00;99.90;;;;;;5055081;28;20021;-84
2021/09/04 07:52:15;;;;;;;26.55;21.00;;;20.50;99.90;;;;;;5054912;28;20033;-83
2021/09/04 07:54:41;;;;;;;25.98;20.98;;;20.80;99.90;;;;;;5054973;28;20023;-83
2021/09/04 07:57:07;;;;;;;31.27;23.08;;;20.90;99.90;;;;;;5054918;28;20507;-83
2021/09/04 07:59:33;;;;;;;28.42;21.77;;;20.70;99.90;;;;;;5053647;28;20104;-83
2021/09/04 08:01:58;;;;;;;28.20;22.23;;;20.50;99.90;;;;;;5054875;28;20405;-82
2021/09/04 08:04:24;;;;;;;29.65;23.50;;;20.40;99.90;;;;;;5054625;28;20056;-83
2021/09/04 08:06:50;;;;;;;27.27;22.75;;;20.20;99.90;;;;;;5055353;28;20020;-84
2021/09/04 08:09:16;;;;;;;29.42;21.63;;;20.10;99.90;;;;;;5055278;28;20055;-84
2021/09/04 08:11:41;;;;;;;28.95;23.15;;;20.20;99.90;;;;;;5054710;28;20040;-83
2021/09/04 08:14:07;;;;;;;32.45;24.63;;;20.30;99.90;;;;;;5054789;28;20029;-82
2021/09/04 08:16:33;;;;;;;28.42;22.40;;;20.20;99.90;;;;;;5054891;28;20071;-82
2021/09/04 08:18:59;;;;;;;31.27;24.63;;;20.10;99.90;;;;;;5053286;28;20029;-82
2021/09/04 08:21:25;;;;;;;27.30;21.67;;;20.20;99.90;;;;;;5054535;28;20028;-83
2021/09/04 08:23:51;;;;;;;29.55;23.55;;;20.30;99.90;;;;;;5053475;28;20029;-82
2021/09/04 08:26:16;;;;;;;29.70;23.25;;;20.20;99.90;;;;;;5054678;28;20474;-82
2021/09/04 08:28:42;;;;;;;28.35;22.58;;;20.20;99.90;;;;;;5054517;28;20040;-84
2021/09/04 08:31:08;;;;;;;31.98;22.40;;;20.30;99.90;;;;;;5053486;28;20484;-84
2021/09/04 08:33:34;;;;;;;31.15;22.42;;;20.50;99.90;;;;;;5054285;28;20021;-83
2021/09/04 08:35:59;;;;;;;25.77;20.40;;;21.20;99.90;;;;;;5053349;28;20219;-84
2021/09/04 08:38:25;;;;;;;25.92;20.23;;;22.30;99.90;;;;;;5054438;28;20438;-83
2021/09/04 08:40:54;;;;;;;23.63;19.38;;;23.10;99.90;;;;;;5054299;28;20104;-83
2021/09/04 08:43:21;;;;;;;25.75;20.52;;;23.60;99.90;;;;;;5052681;28;20037;-82
2021/09/04 08:45:47;;;;;;;27.00;20.77;;;23.90;99.90;;;;;;5053057;28;20500;-83
2021/09/04 08:48:13;;;;;;;27.92;22.48;;;23.80;99.90;;;;;;5054466;28;20033;-84
2021/09/04 08:50:40;;;;;;;27.17;22.85;;;23.70;99.90;;;;;;5054040;28;20028;-83
2021/09/04 08:53:06;;;;;;;28.83;20.13;;;23.60;99.90;;;;;;5054087;28;20029;-84
2021/09/04 08:55:32;;;;;;;23.60;19.88;;;23.70;99.90;;;;;;5054115;28;20021;-82
2021/09/04 08:57:58;;;;;;;27.50;20.45;;;24.00;99.90;;;;;;5053069;28;20029;-82
2021/09/04 09:00:30;;;;;;;28.98;22.30;;;24.30;99.90;;;;;;5054112;28;20485;-82
2021/09/04 09:02:57;;;;;;;23.75;19.20;;;24.10;99.90;;;;;;5052076;28;20025;-82
2021/09/04 09:05:23;;;;;;;30.80;25.25;;;24.70;99.90;;;;;;5052335;28;20140;-82
2021/09/04 09:07:52;;;;;;;26.27;20.45;;;24.50;99.90;;;;;;5054108;28;20100;-83
2021/09/04 09:10:21;;;;;;;22.38;18.05;;;25.40;99.90;;;;;;5053930;28;20028;-82
2021/09/04 09:12:47;;;;;;;23.83;19.85;;;26.50;99.90;;;;;;5053723;28;20106;-80
2021/09/04 09:15:24;;;;;;;22.42;18.17;;;27.00;99.90;;;;;;5052846;28;20462;-80
2021/09/04 09:18:07;;;;;;;24.88;20.90;;;28.00;99.90;;;;;;5053530;28;20044;-81
2021/09/04 09:20:34;;;;;;;19.92;15.27;;;31.40;94.40;;;;;;5053887;28;20050;-80
2021/09/04 09:23:08;;;;;;;20.52;17.27;;;33.40;89.00;;;;;;5053181;28;20021;-81
2021/09/04 09:25:34;;;;;;;;;;;32.30;86.20;;;;;;5054147;28;20489;-80
2021/09/04 09:28:12;;;;;;;23.08;16.85;;;31.70;86.40;;;;;;5052424;28;19915;-80
2021/09/04 09:30:42;;;;;;;19.30;16.23;;;31.20;88.80;;;;;;5053680;28;20025;-80
2021/09/04 09:33:13;;;;;;;20.27;15.90;;;32.90;87.10;;;;;;5053270;28;20031;-81
2021/09/04 09:35:53;;;;;;;23.77;16.38;;;35.60;75.30;;;;;;5053794;28;20051;-81
2021/09/04 09:38:22;;;;;;;24.27;18.00;;;37.60;67.90;;;;;;5053652;28;20100;-80
2021/09/04 09:40:50;;;;;;;24.48;20.00;;;35.60;64.80;;;;;;5053169;28;20469;-79
2021/09/04 09:43:26;;;;;;;24.77;19.30;;;33.50;70.50;;;;;;5051852;28;20033;-79
2021/09/04 09:46:01;;;;;;;18.17;15.10;;;35.40;69.50;;;;;;5051953;28;20128;-80
2021/09/04 09:48:31;;;;;;;19.77;15.60;;;38.90;61.40;;;;;;5053363;28;20021;-81
2021/09/04 09:51:00;;;;;;;23.50;19.17;;;39.30;56.60;;;;;;5053429;28;20021;-80
2021/09/04 09:53:26;;;;;;;17.15;15.27;;;39.20;55.80;;;;;;5052893;28;20029;-81
2021/09/04 09:55:54;;;;;;;19.88;17.70;;;39.90;55.30;;;;;;5051674;28;20036;-81
2021/09/04 09:58:22;;;;;;;21.48;19.27;;;42.00;50.20;;;;;;5052126;28;20017;-80
2021/09/04 10:00:50;;;;;;;16.92;14.80;;;41.20;49.10;;;;;;5051845;28;20021;-81
2021/09/04 10:03:18;;;;;;;18.77;16.80;;;43.10;49.00;;;;;;5051752;28;20021;-81
2021/09/04 10:05:46;;;;;;;21.08;17.67;;;45.40;45.90;;;;;;5055296;28;20040;-81
2021/09/04 10:08:15;;;;;;;17.73;15.93;;;44.30;44.70;;;;;;5056799;28;20500;-81
2021/09/04 10:10:43;;;;;;;19.05;16.55;;;44.90;45.20;;;;;;5056939;28;20017;-81
2021/09/04 10:13:14;;;;;;;18.38;16.48;;;46.40;43.50;;;;;;5056859;28;20017;-81
2021/09/04 10:15:45;;;;;;;19.27;16.97;;;47.20;41.50;;;;;;5057065;28;20036;-81
2021/09/04 10:18:12;;;;;;;19.43;17.37;;;45.40;42.20;;;;;;5056697;28;20025;-82
2021/09/04 10:20:38;;;;;;;23.13;20.73;;;46.30;41.80;;;;;;5056736;28;20128;-81
2021/09/04 10:23:13;;;;;;;18.08;16.17;;;45.40;41.40;;;;;;5055339;28;20081;-81
2021/09/04 10:25:39;;;;;;;19.73;17.35;;;45.80;42.00;;;;;;5055708;28;20032;-81
2021/09/04 10:28:05;;;;;;;20.73;18.55;;;46.70;41.90;;;;;;5055975;28;20366;-82
2021/09/04 10:30:38;;;;;;;20.65;18.60;;;48.90;40.30;;;;;;5056898;28;20036;-83
2021/09/04 10:33:10;;;;;;;24.73;22.20;;;50.00;38.70;;;;;;5057273;28;20021;-82
2021/09/04 10:35:50;;;;;;;25.50;23.02;;;49.60;38.50;;;;;;5056853;28;20021;-83
2021/09/04 10:38:18;;;;;;;18.90;16.90;;;47.10;38.70;;;;;;5056699;28;20104;-82
2021/09/04 10:40:49;;;;;;;21.48;18.27;;;45.50;40.50;;;;;;5055836;28;20021;-82
2021/09/04 10:43:17;;;;;;;19.73;17.67;;;46.00;40.90;;;;;;5055725;28;20053;-83
2021/09/04 10:45:50;;;;;;;19.25;17.30;;;46.50;40.60;;;;;;5055636;28;20053;-83
2021/09/04 10:48:18;;;;;;;21.67;19.10;;;46.90;39.90;;;;;;5054374;28;20025;-82
2021/09/04 10:51:08;;;;;;;21.05;19.02;;;48.10;38.90;;;;;;5055607;28;20503;-82
2021/09/04 10:53:44;;;;;;;22.23;20.10;;;48.70;38.50;;;;;;5055859;28;20483;-83
2021/09/04 10:56:37;;;;;;;23.92;21.63;;;49.50;37.20;;;;;;5056600;28;20078;-83
2021/09/04 10:59:03;;;;;;;22.20;20.02;;;49.00;36.90;;;;;;5055890;28;20083;-83
2021/09/04 11:01:38;;;;;;;19.35;17.45;;;49.30;36.80;;;;;;5054769;28;20477;-83
2021/09/04 11:04:04;;;;;;;18.10;15.45;;;47.10;38.00;;;;;;5055973;28;20049;-83
2021/09/04 11:06:31;;;;;;;18.92;17.02;;;45.40;39.80;;;;;;5054718;28;20032;-83
2021/09/04 11:08:57;;;;;;;20.67;18.60;;;47.20;38.70;;;;;;5054646;28;20032;-84
2021/09/04 11:11:27;;;;;;;20.35;18.38;;;48.30;37.30;;;;;;5055927;28;20057;-84
2021/09/04 11:14:14;;;;;;;21.07;19.07;;;49.40;37.50;;;;;;5054931;28;20409;-83
2021/09/04 11:16:40;;;;;;;23.65;21.50;;;48.50;37.90;;;;;;5054198;28;20025;-83
2021/09/04 11:19:13;;;;;;;21.85;19.85;;;49.00;37.10;;;;;;5055724;28;20029;-83
2021/09/04 11:22:00;;;;;;;22.90;20.90;;;49.20;37.10;;;;;;5054359;28;20036;-83
2021/09/04 11:24:31;;;;;;;24.35;22.15;;;50.50;36.60;;;;;;5056011;28;20033;-83
2021/09/04 11:27:10;;;;;;;24.08;22.02;;;50.60;36.30;;;;;;5055951;28;20500;-83
2021/09/04 11:29:40;;;;;;;20.73;18.63;;;52.00;35.90;;;;;;5053990;28;20032;-83
2021/09/04 11:32:07;;;;;;;15.57;13.43;;;49.50;35.50;;;;;;5053888;28;20032;-83
2021/09/04 11:34:45;;;;;;;15.57;13.38;;;47.10;37.50;;;;;;5054157;28;20489;-83
2021/09/04 11:37:25;;;;;;;18.25;13.65;;;46.60;36.90;;;;;;5053877;28;20107;-82
2021/09/04 11:39:58;;;;;;;15.85;14.15;;;48.90;37.60;;;;;;5055379;28;20485;-82
2021/09/04 11:42:30;;;;;;;15.30;12.15;;;47.10;36.70;;;;;;5053982;28;20436;-83
2021/09/04 11:45:02;;;;;;;15.18;13.25;;;46.20;38.20;;;;;;5053728;28;20115;-82
2021/09/04 11:47:29;;;;;;;16.70;14.10;;;48.30;36.80;;;;;;5055271;28;20449;-83
2021/09/04 11:49:58;;;;;;;15.60;12.73;;;48.10;36.40;;;;;;5055146;28;20485;-82
2021/09/04 11:52:28;;;;;;;12.68;11.35;;;47.80;36.80;;;;;;5055144;28;20025;-83
2021/09/04 11:55:04;;;;;;;16.98;15.20;;;47.60;37.60;;;;;;5055218;28;20100;-83
2021/09/04 11:57:32;;;;;;;17.65;15.90;;;49.50;35.40;;;;;;5053548;28;20425;-83
2021/09/04 12:00:09;;;;;;;15.45;12.68;;;50.80;34.70;;;;;;5053687;28;20162;-83
2021/09/04 12:02:40;;;;;;;18.40;12.63;;;49.00;35.80;;;;;;5053385;28;20029;-82
2021/09/04 12:05:08;;;;;;;14.23;10.65;;;48.00;36.50;;;;;;5054477;28;20041;-83
2021/09/04 12:07:35;;;;;;;15.13;11.82;;;47.50;35.80;;;;;;5053431;28;20507;-83
2021/09/04 12:10:03;;;;;;;16.30;12.90;;;48.10;36.40;;;;;;5054835;28;20021;-82
2021/09/04 12:12:30;;;;;;;14.90;13.23;;;48.80;35.50;;;;;;5054722;28;20412;-83
2021/09/04 12:14:57;;;;;;;13.98;11.30;;;50.20;34.70;;;;;;5054695;28;20029;-82
2021/09/04 12:17:24;;;;;;;16.33;12.07;;;49.30;35.70;;;;;;5054679;28;20025;-83
2021/09/04 12:19:51;;;;;;;16.10;11.60;;;49.10;35.40;;;;;;5053310;28;20025;-83
2021/09/04 12:22:17;;;;;;;15.15;12.57;;;50.10;34.70;;;;;;5053261;28;20029;-83
2021/09/04 12:24:43;;;;;;;16.80;14.50;;;52.50;34.20;;;;;;5054401;28;20028;-82
2021/09/04 12:27:10;;;;;;;16.95;15.32;;;53.90;33.00;;;;;;5053837;28;20052;-82
2021/09/04 12:29:37;;;;;;;13.93;12.43;;;54.80;32.00;;;;;;5054308;28;20534;-83
2021/09/04 12:32:12;;;;;;;13.95;11.88;;;52.60;32.30;;;;;;5054595;28;20028;-83
2021/09/04 12:34:39;;;;;;;14.02;11.15;;;51.70;32.30;;;;;;5054507;28;20028;-83
2021/09/04 12:37:26;;;;;;;14.13;10.75;;;50.80;32.90;;;;;;5054338;28;20051;-82
2021/09/04 12:39:52;;;;;;;14.40;12.13;;;51.60;33.10;;;;;;5052795;28;20017;-82
2021/09/04 12:42:18;;;;;;;12.82;10.65;;;50.30;33.20;;;;;;5054165;28;20096;-84
2021/09/04 12:44:46;;;;;;;15.90;12.68;;;50.20;33.20;;;;;;5052845;28;20512;-82
2021/09/04 12:47:13;;;;;;;14.20;12.23;;;50.80;31.90;;;;;;5053999;28;20397;-83